Mekoryuk, Alaska
Current Conditions -  °F | °C
As of 1:36 PM on Sunday 23 Nov 2014 (Local Time) from PAMY Reporting Station
Overcast Overcast  
Wind Chill: -12°   Ceiling: 2800
Heat Index: -6°   Visibility: 10mi
Dew Point: -12°   Wind: 10mph
Humidity: 63%   Direction: 40°NE
Pressure: 29.47"   Gusts: NA
Location:  60.39°N, 166.19°W
Report Text: PAMY 232236Z AUTO 04009KT 10SM FEW015 OVC028 M06/M12 A2947 RMK AO1
Loading
Personal Weather Stations






























Interactive Weather Map New forecast layout! Learn more

10-Day Weather Forecast

Advertisements
Track Severe Weather on mobile